Time;durP1;ratioP1;P1;durP2;ratioP2;P2;SDS_P1;SDS_P2;PMS_P1;PMS_P2;Temp;Humidity;BMP_temperature;BMP_pressure;BME280_temperature;BME280_humidity;BME280_pressure;Samples;Min_cycle;Max_cycle;Signal;HPM_P1;HPM_P2
2022/01/25 00:28:46;;;;;;;48.80;36.05;;;7.70;90.60;;;;;;5053558;28;20506;-77
2022/01/25 00:31:17;;;;;;;49.83;36.72;;;7.60;89.60;;;;;;5052764;28;20397;-77
2022/01/25 00:33:52;;;;;;;57.65;39.40;;;7.60;90.10;;;;;;5052869;28;20033;-77
2022/01/25 00:36:20;;;;;;;59.40;41.67;;;7.70;90.20;;;;;;5053697;28;20052;-77
2022/01/25 00:38:49;;;;;;;59.30;40.97;;;7.60;90.40;;;;;;5052583;28;20021;-77
2022/01/25 00:41:16;;;;;;;57.88;40.40;;;7.30;90.60;;;;;;5053440;28;20036;-77
2022/01/25 00:43:42;;;;;;;51.08;38.53;;;7.30;91.10;;;;;;5052684;28;20029;-77
2022/01/25 00:46:10;;;;;;;52.60;38.38;;;7.30;91.20;;;;;;5053373;28;20021;-78
2022/01/25 00:54:01;;;;;;;53.05;38.50;;;7.50;91.00;;;;;;5052733;28;20052;-77
2022/01/25 00:56:30;;;;;;;57.08;41.42;;;7.60;90.80;;;;;;5053036;28;20472;-77
2022/01/25 00:59:01;;;;;;;54.88;40.95;;;7.60;90.60;;;;;;5052891;28;20078;-77
2022/01/25 01:01:27;;;;;;;52.95;38.70;;;7.60;90.60;;;;;;5053131;28;20061;-77
2022/01/25 01:03:53;;;;;;;54.42;38.88;;;7.50;90.70;;;;;;5052880;28;20021;-75
2022/01/25 01:06:20;;;;;;;53.22;38.40;;;7.60;90.50;;;;;;5055563;28;20116;-76
2022/01/25 01:08:46;;;;;;;48.17;37.25;;;7.50;90.50;;;;;;5069114;28;20158;-76
2022/01/25 01:11:19;;;;;;;49.40;35.90;;;7.50;90.60;;;;;;5061549;28;20040;-77
2022/01/25 01:14:17;;;;;;;48.33;35.35;;;7.60;90.60;;;;;;5053013;28;20029;-77
2022/01/25 01:30:35;;;;;;;56.42;40.58;;;7.00;91.00;;;;;;5052568;28;20515;-78
2022/01/25 01:36:22;;;;;;;43.22;32.72;;;6.50;91.20;;;;;;5040090;28;20079;-77
2022/01/25 01:41:50;;;;;;;42.72;31.55;;;6.60;91.10;;;;;;5038511;28;20476;-77
2022/01/25 01:44:09;;;;;;;46.72;32.58;;;6.80;90.80;;;;;;5048517;28;20042;-77
2022/01/25 01:46:41;;;;;;;45.40;34.45;;;7.00;90.60;;;;;;5045659;28;20039;-77
2022/01/25 01:49:10;;;;;;;50.40;34.55;;;7.10;90.50;;;;;;5052272;28;20034;-77
2022/01/25 01:51:39;;;;;;;47.22;35.28;;;7.20;90.00;;;;;;5041581;28;20523;-77
2022/01/25 01:54:11;;;;;;;47.45;36.97;;;7.20;90.10;;;;;;5039778;28;20075;-77
2022/01/25 01:56:37;;;;;;;44.97;35.28;;;7.20;90.00;;;;;;5055728;28;20480;-78
2022/01/25 01:59:07;;;;;;;47.75;34.75;;;7.10;90.10;;;;;;5056640;28;20029;-78
2022/01/25 02:01:34;;;;;;;44.97;32.83;;;7.20;90.20;;;;;;5055939;28;20017;-78
2022/01/25 02:04:01;;;;;;;45.65;34.83;;;7.30;90.20;;;;;;5056082;28;20029;-78
2022/01/25 02:06:28;;;;;;;49.13;37.33;;;7.40;90.00;;;;;;5072056;28;20033;-77
2022/01/25 02:08:53;;;;;;;47.28;34.78;;;7.40;89.30;;;;;;5066009;28;20033;-78
2022/01/25 02:11:20;;;;;;;45.40;35.55;;;7.40;89.40;;;;;;5055900;28;20040;-78
2022/01/25 02:13:46;;;;;;;46.45;34.65;;;7.40;89.00;;;;;;5055631;28;20059;-78
2022/01/25 02:16:31;;;;;;;50.47;36.90;;;7.40;87.90;;;;;;5055535;28;20083;-78
2022/01/25 02:24:29;;;;;;;52.10;35.60;;;7.30;88.70;;;;;;5055494;28;20040;-78
2022/01/25 02:26:56;;;;;;;46.90;35.58;;;7.10;88.30;;;;;;5055093;28;20079;-78
2022/01/25 02:29:22;;;;;;;54.13;38.97;;;7.00;88.90;;;;;;5055966;28;20120;-78
2022/01/25 02:31:47;;;;;;;49.20;38.08;;;7.10;89.00;;;;;;5055143;28;20115;-78
2022/01/25 02:34:13;;;;;;;45.75;35.47;;;7.10;89.40;;;;;;5055622;28;20040;-78
2022/01/25 02:36:39;;;;;;;43.10;33.28;;;7.10;89.20;;;;;;5055389;28;20071;-78
2022/01/25 02:39:05;;;;;;;43.10;33.50;;;7.20;88.90;;;;;;5055157;28;20479;-78
2022/01/25 02:41:30;;;;;;;45.88;34.60;;;7.30;88.70;;;;;;5055612;28;20112;-78
2022/01/25 02:43:58;;;;;;;46.35;35.95;;;7.30;88.50;;;;;;5055187;28;20029;-78
2022/01/25 02:49:01;;;;;;;53.35;39.30;;;7.50;87.30;;;;;;5051687;28;20017;-77
2022/01/25 02:51:30;;;;;;;53.10;39.07;;;7.40;87.00;;;;;;5054816;28;20437;-77
2022/01/25 02:53:57;;;;;;;58.10;39.60;;;7.20;87.70;;;;;;5054819;28;20071;-78
2022/01/25 02:56:23;;;;;;;55.50;40.35;;;7.20;88.10;;;;;;5055718;28;20031;-78
2022/01/25 02:58:49;;;;;;;57.03;40.30;;;7.10;88.60;;;;;;5054992;28;20107;-78
2022/01/25 03:01:16;;;;;;;57.67;40.95;;;7.00;88.80;;;;;;5056484;28;20064;-77
2022/01/25 03:03:41;;;;;;;57.72;40.97;;;7.10;89.20;;;;;;5070776;28;20043;-77
2022/01/25 03:06:07;;;;;;;57.03;39.35;;;7.10;88.60;;;;;;5067336;28;20700;-76
2022/01/25 03:08:33;;;;;;;55.97;40.67;;;7.10;88.70;;;;;;5055032;28;20047;-76
2022/01/25 03:10:59;;;;;;;60.35;42.13;;;7.30;88.30;;;;;;5054644;28;20029;-76
2022/01/25 03:13:31;;;;;;;69.10;46.55;;;7.30;88.00;;;;;;5054318;28;20484;-76
2022/01/25 03:16:02;;;;;;;64.57;42.78;;;7.20;87.60;;;;;;5054713;28;20056;-76
2022/01/25 03:21:04;;;;;;;65.50;45.35;;;7.30;88.00;;;;;;5054289;28;20029;-76
2022/01/25 03:23:31;;;;;;;65.90;44.65;;;7.30;88.40;;;;;;5054873;28;20053;-76
2022/01/25 03:25:57;;;;;;;72.90;48.70;;;7.30;87.50;;;;;;5054098;28;20484;-76
2022/01/25 03:28:24;;;;;;;73.95;48.15;;;7.40;87.60;;;;;;5054524;28;20033;-76
2022/01/25 03:30:50;;;;;;;67.07;45.35;;;7.30;88.00;;;;;;5054433;28;20392;-76
2022/01/25 03:33:17;;;;;;;69.13;47.33;;;7.30;88.30;;;;;;5054346;28;20032;-77
2022/01/25 03:35:43;;;;;;;71.13;48.08;;;7.30;88.20;;;;;;5054160;28;20424;-77
2022/01/25 03:38:10;;;;;;;72.68;48.55;;;7.20;88.50;;;;;;5054340;28;20488;-78
2022/01/25 03:40:35;;;;;;;74.43;50.13;;;7.10;88.60;;;;;;5054147;28;20025;-77
2022/01/25 03:43:05;;;;;;;76.70;52.15;;;7.00;89.40;;;;;;5054636;28;20033;-78
2022/01/25 03:45:33;;;;;;;73.28;49.17;;;6.90;90.00;;;;;;5053922;28;20021;-78
2022/01/25 03:50:26;;;;;;;72.40;47.65;;;6.90;89.80;;;;;;5054075;28;20040;-77
2022/01/25 03:52:52;;;;;;;70.07;47.25;;;7.10;89.60;;;;;;5054431;28;20115;-78
2022/01/25 03:55:18;;;;;;;77.80;50.55;;;7.20;89.80;;;;;;5048623;28;20029;-78
2022/01/25 03:57:44;;;;;;;78.72;50.20;;;7.20;88.20;;;;;;5054445;28;20446;-78
2022/01/25 04:00:11;;;;;;;79.72;51.40;;;7.10;88.60;;;;;;5054395;28;20025;-76
2022/01/25 04:02:40;;;;;;;75.68;48.33;;;7.10;88.60;;;;;;5070689;28;20060;-76
2022/01/25 04:05:14;;;;;;;76.68;50.53;;;7.20;88.60;;;;;;5063480;28;20112;-77
2022/01/25 04:07:48;;;;;;;78.93;51.63;;;7.20;88.60;;;;;;5033405;28;20055;-77
2022/01/25 04:10:14;;;;;;;72.97;49.30;;;7.20;88.10;;;;;;5051592;28;20051;-77
2022/01/25 04:12:39;;;;;;;72.97;48.92;;;7.20;88.60;;;;;;5053600;28;20033;-78
2022/01/25 04:15:05;;;;;;;79.43;51.25;;;7.20;88.60;;;;;;5053691;28;20601;-77
2022/01/25 04:17:33;;;;;;;76.95;51.25;;;7.30;88.30;;;;;;5053963;28;20033;-78
2022/01/25 04:20:23;;;;;;;77.95;49.47;;;7.20;88.20;;;;;;5053526;28;20031;-78
2022/01/25 04:25:31;;;;;;;77.72;47.40;;;7.20;88.70;;;;;;5052535;28;20545;-75
2022/01/25 04:27:58;;;;;;;71.68;46.25;;;7.30;88.60;;;;;;5053920;28;20104;-76
2022/01/25 04:30:23;;;;;;;71.85;46.15;;;7.40;88.50;;;;;;5052226;28;20464;-77
2022/01/25 04:32:57;;;;;;;80.45;50.40;;;7.50;88.40;;;;;;5052168;28;20036;-77
2022/01/25 04:49:11;;;;;;;72.38;47.30;;;7.60;87.80;;;;;;5053417;28;20043;-78
2022/01/25 04:51:48;;;;;;;75.78;50.65;;;7.60;87.80;;;;;;5052531;28;20404;-77
2022/01/25 04:54:26;;;;;;;79.95;50.50;;;7.60;87.30;;;;;;5053222;28;20036;-77
2022/01/25 04:57:03;;;;;;;80.68;51.53;;;7.60;86.70;;;;;;5055373;28;20028;-76
2022/01/25 05:02:02;;;;;;;77.95;52.53;;;7.20;87.80;;;;;;5062734;28;20036;-77
2022/01/25 05:04:32;;;;;;;;;;;7.30;88.10;;;;;;5053695;28;20079;-77
2022/01/25 05:07:10;;;;;;;78.97;51.15;;;7.30;88.10;;;;;;5052394;28;19917;-77
2022/01/25 05:09:37;;;;;;;81.75;53.80;;;7.30;87.40;;;;;;5052369;28;20044;-77
2022/01/25 05:12:04;;;;;;;85.63;52.78;;;7.20;87.80;;;;;;5052471;28;20045;-77
2022/01/25 05:14:34;;;;;;;77.97;50.15;;;7.00;88.30;;;;;;5052440;28;20484;-77
2022/01/25 05:17:04;;;;;;;75.88;49.60;;;6.90;89.10;;;;;;5052937;28;20027;-78
2022/01/25 05:22:06;;;;;;;76.80;50.92;;;7.00;89.30;;;;;;5056796;28;20024;-78
2022/01/25 05:24:38;;;;;;;80.28;52.10;;;7.10;88.80;;;;;;5056731;28;20037;-78
2022/01/25 05:27:05;;;;;;;83.33;51.77;;;7.00;89.20;;;;;;5056537;28;20036;-78
2022/01/25 05:29:31;;;;;;;78.88;50.63;;;6.90;89.80;;;;;;5056750;28;20742;-78
2022/01/25 05:31:58;;;;;;;79.88;49.72;;;6.80;90.20;;;;;;5056747;28;20124;-77
2022/01/25 05:34:24;;;;;;;78.80;49.47;;;6.80;90.70;;;;;;5056581;28;20036;-77
2022/01/25 05:36:50;;;;;;;82.03;52.45;;;6.90;90.40;;;;;;5056772;28;20025;-77
2022/01/25 05:39:21;;;;;;;79.45;51.80;;;6.90;90.30;;;;;;5056367;28;20033;-77
2022/01/25 05:41:55;;;;;;;81.15;51.90;;;6.80;90.40;;;;;;5056857;28;20523;-78
2022/01/25 05:47:07;;;;;;;80.53;53.10;;;6.60;90.30;;;;;;5057103;28;20539;-78
2022/01/25 05:49:35;;;;;;;77.55;50.05;;;6.60;90.60;;;;;;5056304;28;20052;-78
2022/01/25 05:52:02;;;;;;;80.57;53.03;;;6.70;90.60;;;;;;5056562;28;20127;-78
2022/01/25 05:54:28;;;;;;;78.95;50.60;;;6.80;90.50;;;;;;5056398;28;20021;-78
2022/01/25 05:56:53;;;;;;;74.05;48.30;;;6.80;90.60;;;;;;5070374;28;20033;-78
2022/01/25 05:59:19;;;;;;;75.90;49.25;;;6.90;90.50;;;;;;5061056;28;20044;-78
2022/01/25 06:01:45;;;;;;;73.97;47.63;;;7.00;90.40;;;;;;5038078;28;20450;-79
2022/01/25 06:04:11;;;;;;;76.43;50.35;;;7.10;90.30;;;;;;5042408;28;20025;-78
2022/01/25 06:06:37;;;;;;;74.38;49.40;;;7.20;90.10;;;;;;5044476;28;20080;-78
2022/01/25 06:09:03;;;;;;;72.93;46.95;;;7.30;90.00;;;;;;5036596;28;20025;-80
2022/01/25 06:11:28;;;;;;;72.57;47.47;;;7.30;89.60;;;;;;5046221;28;20091;-80
2022/01/25 06:13:54;;;;;;;77.88;50.65;;;7.40;89.20;;;;;;5052727;28;20029;-79
2022/01/25 06:16:20;;;;;;;74.40;49.28;;;7.50;88.60;;;;;;5040828;28;20053;-78
2022/01/25 06:18:45;;;;;;;74.18;49.15;;;7.50;88.40;;;;;;5037351;28;20038;-78
2022/01/25 06:21:11;;;;;;;71.55;47.83;;;7.50;88.30;;;;;;5055434;28;20029;-78
2022/01/25 06:23:39;;;;;;;75.32;49.15;;;7.50;88.20;;;;;;5055640;28;20537;-78
2022/01/25 06:26:05;;;;;;;82.70;53.03;;;7.50;87.90;;;;;;5054136;28;20503;-78
2022/01/25 06:28:31;;;;;;;78.60;50.75;;;7.50;87.80;;;;;;5055704;28;20025;-78
2022/01/25 06:30:56;;;;;;;77.57;49.72;;;7.50;88.00;;;;;;5052748;28;20041;-78
2022/01/25 06:33:22;;;;;;;77.05;49.58;;;7.50;88.00;;;;;;5053782;28;20041;-78
2022/01/25 06:35:49;;;;;;;79.05;51.00;;;7.40;87.40;;;;;;5053221;28;20025;-78
2022/01/25 06:38:14;;;;;;;77.72;51.28;;;7.40;87.10;;;;;;5053990;28;20033;-78
2022/01/25 06:40:40;;;;;;;76.97;50.28;;;7.40;87.20;;;;;;5053068;28;20029;-77
2022/01/25 06:43:06;;;;;;;77.75;49.90;;;7.40;87.30;;;;;;5055327;28;20393;-78
2022/01/25 06:45:33;;;;;;;80.57;52.92;;;7.30;87.30;;;;;;5054768;28;21270;-79
2022/01/25 06:47:59;;;;;;;82.85;52.55;;;7.20;87.50;;;;;;5055203;28;20449;-79
2022/01/25 06:50:25;;;;;;;86.00;53.92;;;7.10;87.80;;;;;;5055146;28;20130;-84
2022/01/25 06:52:52;;;;;;;85.38;53.72;;;7.00;87.70;;;;;;5057494;28;20469;-80
2022/01/25 06:55:19;;;;;;;78.22;51.70;;;6.90;88.30;;;;;;5065037;28;20029;-81
2022/01/25 06:57:45;;;;;;;85.38;52.72;;;6.90;88.60;;;;;;5070962;28;20037;-81
2022/01/25 07:00:18;;;;;;;83.25;53.28;;;7.00;88.70;;;;;;5055737;28;20104;-81
2022/01/25 07:02:44;;;;;;;79.82;50.65;;;6.90;89.00;;;;;;5055480;28;20047;-83
2022/01/25 07:05:09;;;;;;;84.57;54.60;;;6.90;89.50;;;;;;5055537;28;20055;-81
2022/01/25 07:07:37;;;;;;;80.15;50.78;;;6.70;90.00;;;;;;5054775;28;20144;-80
2022/01/25 07:10:04;;;;;;;86.82;54.88;;;6.70;90.30;;;;;;5055295;28;20082;-82
2022/01/25 07:12:29;;;;;;;82.85;53.20;;;6.60;90.50;;;;;;5054455;28;20037;-80
2022/01/25 07:14:55;;;;;;;84.13;52.40;;;6.50;90.70;;;;;;5055079;28;20218;-80
2022/01/25 07:17:21;;;;;;;90.20;54.65;;;6.40;90.70;;;;;;5054870;28;20021;-81
2022/01/25 07:19:46;;;;;;;82.97;51.75;;;6.40;90.60;;;;;;5054716;28;20040;-84
2022/01/25 07:22:12;;;;;;;85.72;52.85;;;6.30;90.90;;;;;;5054098;28;20065;-81
2022/01/25 07:24:38;;;;;;;82.10;51.80;;;6.30;90.70;;;;;;5054193;28;20032;-79
2022/01/25 07:27:04;;;;;;;85.53;52.78;;;6.40;90.60;;;;;;5054706;28;20439;-79
2022/01/25 07:29:29;;;;;;;78.78;49.90;;;6.40;90.70;;;;;;5054141;28;20021;-81
2022/01/25 07:31:55;;;;;;;73.75;46.17;;;6.50;91.00;;;;;;5054165;28;20431;-81
2022/01/25 07:34:22;;;;;;;80.30;51.45;;;6.70;91.60;;;;;;5054114;28;20024;-78
2022/01/25 07:36:48;;;;;;;87.05;54.40;;;6.80;91.20;;;;;;5054003;28;20554;-78
2022/01/25 07:39:13;;;;;;;87.03;52.90;;;6.80;90.20;;;;;;5053911;28;20116;-83
2022/01/25 07:41:39;;;;;;;80.30;51.78;;;6.70;90.10;;;;;;5053437;28;20036;-78
2022/01/25 07:44:06;;;;;;;81.22;50.20;;;6.60;90.30;;;;;;5054008;28;20480;-78
2022/01/25 07:46:33;;;;;;;84.95;53.63;;;6.70;90.70;;;;;;5052667;28;20417;-79
2022/01/25 07:48:59;;;;;;;80.85;51.45;;;6.80;90.80;;;;;;5054213;28;20077;-80
2022/01/25 07:51:28;;;;;;;82.00;50.97;;;6.90;91.20;;;;;;5064921;28;20029;-84
2022/01/25 07:53:55;;;;;;;79.60;50.53;;;7.00;90.60;;;;;;5075212;28;20077;-78
2022/01/25 07:56:21;;;;;;;68.20;44.53;;;7.00;90.30;;;;;;5067053;28;20484;-82
2022/01/25 07:58:47;;;;;;;66.82;42.95;;;7.10;90.50;;;;;;5054367;28;20063;-82
2022/01/25 08:01:17;;;;;;;80.68;52.55;;;7.30;91.30;;;;;;5054195;28;20068;-81
2022/01/25 08:03:45;;;;;;;77.43;50.20;;;7.30;90.30;;;;;;5054502;28;20104;-81
2022/01/25 08:06:12;;;;;;;68.40;44.78;;;7.30;90.00;;;;;;5054023;28;20024;-81
2022/01/25 08:08:40;;;;;;;72.90;48.72;;;7.30;90.80;;;;;;5054708;28;20033;-79
2022/01/25 08:11:06;;;;;;;73.35;49.35;;;7.40;90.40;;;;;;5053753;28;20033;-80
2022/01/25 08:13:32;;;;;;;70.18;43.30;;;7.50;90.10;;;;;;5054151;28;20028;-81
2022/01/25 08:15:57;;;;;;;72.43;46.72;;;7.60;90.20;;;;;;5053837;28;20029;-81
2022/01/25 08:18:23;;;;;;;65.28;43.05;;;7.70;90.20;;;;;;5053936;28;20146;-81
2022/01/25 08:20:49;;;;;;;73.60;47.28;;;7.80;90.10;;;;;;5054070;28;20457;-81
2022/01/25 08:23:15;;;;;;;63.25;41.47;;;7.90;90.10;;;;;;5053639;28;20021;-81
2022/01/25 08:25:41;;;;;;;72.55;47.05;;;7.90;90.60;;;;;;5053556;28;20460;-81
2022/01/25 08:28:07;;;;;;;77.05;50.75;;;8.00;90.20;;;;;;5053707;28;20033;-81
2022/01/25 08:30:32;;;;;;;73.05;46.85;;;7.90;87.40;;;;;;5053904;28;20029;-81
2022/01/25 08:32:58;;;;;;;81.30;53.00;;;7.80;87.30;;;;;;5053942;28;20021;-81
2022/01/25 08:35:24;;;;;;;83.93;52.92;;;7.70;87.40;;;;;;5054484;28;20029;-81
2022/01/25 08:37:50;;;;;;;83.97;52.35;;;7.50;86.30;;;;;;5053944;28;20052;-81
2022/01/25 08:40:16;;;;;;;87.82;54.05;;;7.30;87.30;;;;;;5064062;28;20029;-80
2022/01/25 08:42:42;;;;;;;85.13;53.28;;;7.10;87.80;;;;;;5055225;28;20021;-81
2022/01/25 08:45:08;;;;;;;82.28;51.88;;;6.90;88.90;;;;;;5053508;28;20060;-81
2022/01/25 08:47:34;;;;;;;83.25;49.88;;;6.80;89.20;;;;;;5053410;28;20087;-81
2022/01/25 08:50:00;;;;;;;72.05;46.38;;;6.70;89.50;;;;;;5055054;28;20020;-81
2022/01/25 08:52:27;;;;;;;73.78;46.38;;;6.80;90.10;;;;;;5061646;28;20037;-81
2022/01/25 08:54:52;;;;;;;66.50;41.45;;;7.00;90.20;;;;;;5069928;28;20044;-81
2022/01/25 08:57:18;;;;;;;67.45;43.67;;;7.20;90.10;;;;;;5054442;28;20399;-80
2022/01/25 08:59:44;;;;;;;72.28;46.05;;;7.30;90.20;;;;;;5052566;28;20029;-81
2022/01/25 09:02:09;;;;;;;84.78;53.08;;;7.40;89.70;;;;;;5051411;28;20136;-80
2022/01/25 09:04:35;;;;;;;81.50;50.75;;;7.50;88.70;;;;;;5052132;28;20040;-80
2022/01/25 09:07:01;;;;;;;74.65;48.05;;;7.40;87.50;;;;;;5052029;28;20124;-80
2022/01/25 09:09:26;;;;;;;74.97;49.30;;;7.30;88.50;;;;;;5052489;28;20024;-79
2022/01/25 09:11:52;;;;;;;76.70;49.33;;;7.40;88.20;;;;;;5051874;28;20120;-80
2022/01/25 09:14:17;;;;;;;72.10;46.15;;;7.40;87.80;;;;;;5052068;28;20025;-86
2022/01/25 09:16:43;;;;;;;67.70;44.55;;;7.40;88.40;;;;;;5051947;28;20025;-83
2022/01/25 09:19:09;;;;;;;75.78;49.63;;;7.50;89.20;;;;;;5051573;28;20017;-85
2022/01/25 09:21:35;;;;;;;73.93;48.25;;;7.60;89.60;;;;;;5051349;28;20032;-81
2022/01/25 09:24:01;;;;;;;96.00;51.45;;;7.50;88.70;;;;;;5051393;28;20025;-86
2022/01/25 09:26:27;;;;;;;79.88;51.67;;;7.40;88.70;;;;;;5051947;28;20570;-85
2022/01/25 09:28:54;;;;;;;80.63;49.13;;;7.20;88.60;;;;;;5053059;28;20057;-87
2022/01/25 09:31:24;;;;;;;74.57;48.42;;;7.10;89.30;;;;;;5053950;28;20057;-88
2022/01/25 09:33:50;;;;;;;84.03;51.92;;;7.10;90.00;;;;;;5053434;28;20021;-88
2022/01/25 09:36:16;;;;;;;80.10;50.05;;;7.20;89.30;;;;;;5052906;28;20480;-88
2022/01/25 09:38:42;;;;;;;78.75;49.88;;;7.10;89.70;;;;;;5053179;28;20021;-88
2022/01/25 09:41:09;;;;;;;76.45;48.85;;;7.00;89.80;;;;;;5052144;28;20783;-85
2022/01/25 09:43:35;;;;;;;86.13;51.47;;;6.90;90.10;;;;;;5051867;28;20043;-85
2022/01/25 09:46:00;;;;;;;84.10;50.63;;;7.00;90.00;;;;;;5052785;28;20107;-87
2022/01/25 09:48:26;;;;;;;86.43;52.10;;;7.00;89.60;;;;;;5055427;28;20182;-88
2022/01/25 09:50:52;;;;;;;84.03;51.88;;;6.90;89.50;;;;;;5072468;28;20043;-87
2022/01/25 09:53:18;;;;;;;81.35;49.30;;;6.80;90.20;;;;;;5070623;28;20059;-86
2022/01/25 09:55:45;;;;;;;72.43;46.03;;;6.80;90.20;;;;;;5053907;28;20547;-89
2022/01/25 09:58:12;;;;;;;83.60;53.22;;;6.80;90.50;;;;;;5052673;28;20017;-86
2022/01/25 10:00:39;;;;;;;86.95;53.22;;;6.80;90.60;;;;;;5052067;28;20053;-86
2022/01/25 10:03:21;;;;;;;84.20;52.17;;;6.90;90.60;;;;;;5048683;28;20048;-88
2022/01/25 10:05:50;;;;;;;86.60;52.42;;;6.90;90.60;;;;;;5055206;28;20028;-87
2022/01/25 10:08:25;;;;;;;78.25;49.38;;;6.80;90.20;;;;;;5055982;28;20135;-88
2022/01/25 10:10:59;;;;;;;80.13;48.70;;;6.70;90.60;;;;;;5055154;28;20040;-84
2022/01/25 10:13:28;;;;;;;83.72;50.65;;;6.70;90.60;;;;;;5051388;28;20056;-86
2022/01/25 10:16:03;;;;;;;82.63;50.92;;;6.70;90.60;;;;;;5047732;28;20021;-86
2022/01/25 10:18:57;;;;;;;80.80;48.33;;;6.60;90.50;;;;;;5056830;28;20017;-86
2022/01/25 10:21:29;;;;;;;77.38;47.13;;;6.60;90.80;;;;;;5037207;28;20503;-87
2022/01/25 10:24:09;;;;;;;72.65;44.35;;;6.70;91.00;;;;;;5036988;28;20028;-87
2022/01/25 10:26:39;;;;;;;78.32;47.33;;;6.90;91.00;;;;;;5041814;28;20029;-85
2022/01/25 10:29:10;;;;;;;83.28;49.67;;;7.00;90.70;;;;;;5077016;28;20545;-86
2022/01/25 10:31:42;;;;;;;80.90;49.25;;;7.10;90.10;;;;;;5076895;28;20063;-86
2022/01/25 10:34:10;;;;;;;76.80;47.33;;;7.10;90.00;;;;;;5066578;28;20021;-86
2022/01/25 10:36:47;;;;;;;84.93;50.58;;;7.10;90.20;;;;;;5057619;28;20178;-86
2022/01/25 10:39:21;;;;;;;78.03;48.33;;;7.20;90.10;;;;;;5056974;28;20032;-86
2022/01/25 10:41:47;;;;;;;83.70;50.30;;;7.30;90.10;;;;;;5060008;28;20033;-88
2022/01/25 10:44:13;;;;;;;79.78;49.00;;;7.30;89.40;;;;;;5067614;28;20025;-87
2022/01/25 10:46:39;;;;;;;85.85;51.38;;;7.30;90.00;;;;;;5058091;28;20021;-86
2022/01/25 10:49:08;;;;;;;81.60;50.10;;;7.20;89.60;;;;;;5068867;28;20029;-88
2022/01/25 10:51:37;;;;;;;72.07;43.88;;;7.10;89.90;;;;;;5075642;28;20082;-88
2022/01/25 10:54:12;;;;;;;78.20;46.67;;;7.10;90.20;;;;;;5056681;28;20032;-82
2022/01/25 10:56:53;;;;;;;78.00;46.38;;;7.20;90.30;;;;;;5055734;28;20032;-84
2022/01/25 10:59:23;;;;;;;82.93;49.05;;;7.30;90.40;;;;;;5055395;28;20026;-86
2022/01/25 11:02:00;;;;;;;88.45;52.50;;;7.40;90.00;;;;;;5054492;28;20531;-85
2022/01/25 11:04:31;;;;;;;86.05;51.60;;;7.20;88.60;;;;;;5055787;28;20392;-83
2022/01/25 11:07:04;;;;;;;86.07;49.60;;;7.00;89.70;;;;;;5055687;28;20056;-86
2022/01/25 11:09:37;;;;;;;80.32;48.75;;;6.80;90.40;;;;;;5054139;28;20472;-80
2022/01/25 11:12:06;;;;;;;82.95;49.70;;;6.90;90.70;;;;;;5056074;28;20041;-90
2022/01/25 11:14:50;;;;;;;75.40;46.17;;;7.00;90.70;;;;;;5056230;28;20052;-89
2022/01/25 11:17:16;;;;;;;83.85;50.67;;;7.10;90.50;;;;;;5055078;28;20582;-82
2022/01/25 11:19:42;;;;;;;83.30;50.50;;;7.20;90.60;;;;;;5055674;28;20182;-87
2022/01/25 11:22:10;;;;;;;83.95;51.15;;;7.10;90.60;;;;;;5055339;28;20120;-87
2022/01/25 11:24:38;;;;;;;90.53;52.15;;;7.10;90.10;;;;;;5053487;28;20040;-86
2022/01/25 11:27:06;;;;;;;82.63;49.45;;;6.80;90.20;;;;;;5055062;28;20048;-83
2022/01/25 11:29:35;;;;;;;84.05;50.10;;;6.60;90.80;;;;;;5052882;28;20353;-85
2022/01/25 11:32:14;;;;;;;80.38;47.83;;;6.50;91.00;;;;;;5054016;28;20067;-80
2022/01/25 11:34:43;;;;;;;76.22;44.67;;;6.30;91.20;;;;;;5053136;28;20029;-80
2022/01/25 11:37:09;;;;;;;81.95;48.35;;;6.40;91.20;;;;;;5053884;28;20033;-79
2022/01/25 11:39:39;;;;;;;86.15;48.78;;;6.50;90.90;;;;;;5054703;28;20159;-78
2022/01/25 11:42:14;;;;;;;71.78;43.85;;;6.60;90.90;;;;;;5054481;28;20091;-78
2022/01/25 11:45:11;;;;;;;64.93;38.85;;;6.70;90.80;;;;;;5054469;28;20037;-77
2022/01/25 11:47:37;;;;;;;75.32;46.15;;;6.90;91.10;;;;;;5052789;28;20500;-78
2022/01/25 11:50:07;;;;;;;82.55;49.58;;;7.00;91.00;;;;;;5054884;28;20033;-76
2022/01/25 11:52:34;;;;;;;81.80;50.10;;;7.10;90.40;;;;;;5052344;28;20094;-77
2022/01/25 11:55:26;;;;;;;82.30;48.88;;;7.00;90.20;;;;;;5052649;28;20029;-79
2022/01/25 11:57:57;;;;;;;86.10;49.28;;;6.90;90.20;;;;;;5051805;28;20029;-78
2022/01/25 12:00:50;;;;;;;84.25;48.05;;;6.70;90.60;;;;;;5053471;28;20104;-77
2022/01/25 12:03:24;;;;;;;85.63;48.30;;;6.60;90.90;;;;;;5052952;28;20029;-84
2022/01/25 12:06:03;;;;;;;76.32;44.92;;;6.60;90.80;;;;;;5038420;28;20549;-84
2022/01/25 12:11:29;;;;;;;;;;;6.80;90.90;;;;;;5053879;28;20037;-78
2022/01/25 12:14:14;;;;;;;77.22;45.75;;;7.00;90.60;;;;;;5051469;28;19909;-77
2022/01/25 12:16:44;;;;;;;78.50;47.65;;;7.10;90.10;;;;;;5042697;28;20025;-75
2022/01/25 12:19:13;;;;;;;70.78;42.67;;;6.90;90.00;;;;;;5052390;28;20476;-76
2022/01/25 12:21:59;;;;;;;68.75;42.92;;;7.00;90.50;;;;;;5052480;28;20094;-76
2022/01/25 12:24:48;;;;;;;84.18;48.75;;;7.10;90.60;;;;;;5053464;28;20476;-75
2022/01/25 12:29:44;;;;;;;73.05;44.65;;;7.20;90.50;;;;;;5054993;28;20029;-76
2022/01/25 12:32:18;;;;;;;82.28;47.08;;;7.30;90.30;;;;;;5054539;28;20205;-76
2022/01/25 12:35:30;;;;;;;79.07;48.47;;;7.30;90.00;;;;;;5054552;28;20036;-76
2022/01/25 12:37:57;;;;;;;79.97;47.50;;;7.30;90.00;;;;;;5031429;28;20037;-76
2022/01/25 12:40:26;;;;;;;86.90;49.17;;;7.30;89.90;;;;;;5051656;28;20099;-79
2022/01/25 12:42:57;;;;;;;82.28;48.90;;;7.10;90.00;;;;;;5051963;28;20028;-83
2022/01/25 12:45:25;;;;;;;78.97;46.60;;;7.00;90.00;;;;;;5055041;28;20087;-74
2022/01/25 12:47:59;;;;;;;80.47;47.33;;;6.90;90.40;;;;;;5052916;28;20477;-75
2022/01/25 12:50:29;;;;;;;82.07;48.58;;;6.90;90.60;;;;;;5052576;28;20025;-76
2022/01/25 12:52:57;;;;;;;73.00;42.78;;;6.80;90.60;;;;;;5052363;28;20044;-76
2022/01/25 12:55:26;;;;;;;78.13;46.55;;;6.70;90.60;;;;;;5052840;28;20055;-75
2022/01/25 12:57:53;;;;;;;86.88;48.67;;;6.80;90.80;;;;;;5052511;28;20344;-74
2022/01/25 13:00:21;;;;;;;80.82;47.50;;;6.80;90.60;;;;;;5052662;28;20038;-75
2022/01/25 13:02:46;;;;;;;77.32;46.65;;;6.70;90.60;;;;;;5052883;28;20032;-75
2022/01/25 13:05:24;;;;;;;80.93;48.22;;;6.60;90.70;;;;;;5052883;28;20032;-78
2022/01/25 13:07:50;;;;;;;82.45;48.38;;;6.40;90.90;;;;;;5052421;28;20044;-76
2022/01/25 13:10:29;;;;;;;76.60;45.70;;;6.30;91.30;;;;;;5053001;28;20510;-87
2022/01/25 13:12:58;;;;;;;77.93;47.22;;;6.20;91.70;;;;;;5052642;28;20040;-78
2022/01/25 13:18:22;;;;;;;72.13;42.25;;;6.20;91.50;;;;;;5052673;28;20033;-78
2022/01/25 13:21:00;;;;;;;75.30;42.40;;;6.30;91.40;;;;;;5052913;28;20025;-82
2022/01/25 13:23:51;;;;;;;71.82;41.53;;;6.50;91.50;;;;;;5052776;28;20037;-80
2022/01/25 13:26:19;;;;;;;80.07;45.75;;;6.70;91.60;;;;;;5053234;28;20480;-83
2022/01/25 13:31:14;;;;;;;120.63;79.32;;;6.70;90.50;;;;;;5053034;28;20051;-86
2022/01/25 13:33:40;;;;;;;87.68;53.03;;;6.60;90.60;;;;;;5052857;28;20060;-81
2022/01/25 13:36:08;;;;;;;78.00;47.28;;;6.50;91.10;;;;;;5052860;28;20095;-79
2022/01/25 13:38:38;;;;;;;78.10;47.33;;;6.60;91.00;;;;;;5052851;28;20029;-80
2022/01/25 13:46:36;;;;;;;72.43;42.30;;;6.70;91.00;;;;;;5077329;28;20030;-81
2022/01/25 13:49:14;;;;;;;75.82;44.50;;;6.80;91.20;;;;;;5057868;28;20049;-80
2022/01/25 13:51:46;;;;;;;82.35;48.05;;;6.90;91.30;;;;;;5038522;28;20116;-91
2022/01/25 13:54:14;;;;;;;81.43;48.47;;;7.00;90.70;;;;;;5054914;28;20017;-91
2022/01/25 13:56:40;;;;;;;78.43;46.95;;;6.90;90.60;;;;;;5057032;28;20033;-81
2022/01/25 13:59:08;;;;;;;73.50;44.47;;;6.90;91.10;;;;;;5055811;28;20102;-82
2022/01/25 14:01:35;;;;;;;78.65;47.25;;;6.90;91.10;;;;;;5056519;28;20021;-81
2022/01/25 14:04:05;;;;;;;76.65;46.65;;;6.90;90.30;;;;;;5056745;28;20424;-81
2022/01/25 14:06:42;;;;;;;78.53;46.33;;;6.70;90.50;;;;;;5056331;28;20423;-81
2022/01/25 14:09:12;;;;;;;70.78;43.95;;;6.80;91.20;;;;;;5057024;28;20021;-81
2022/01/25 14:25:30;;;;;;;73.75;43.55;;;7.10;90.60;;;;;;5036736;28;20029;-81
2022/01/25 14:27:58;;;;;;;72.30;42.60;;;7.20;90.40;;;;;;5036325;28;20030;-80
2022/01/25 14:30:25;;;;;;;68.45;42.90;;;7.30;90.30;;;;;;5036577;28;20411;-80
2022/01/25 14:33:01;;;;;;;74.68;45.35;;;7.40;90.30;;;;;;5037076;28;20045;-80
2022/01/25 14:35:27;;;;;;;74.90;43.40;;;7.40;90.10;;;;;;5036622;28;20037;-81
2022/01/25 14:37:53;;;;;;;70.88;42.53;;;7.40;89.80;;;;;;5036394;28;20026;-80
2022/01/25 14:40:19;;;;;;;67.65;41.80;;;7.50;89.80;;;;;;5044802;28;20014;-81
2022/01/25 14:42:46;;;;;;;70.38;42.53;;;7.60;89.90;;;;;;5060299;28;20036;-80
2022/01/25 14:45:19;;;;;;;69.68;42.42;;;7.70;88.90;;;;;;5050059;28;20028;-81
2022/01/25 14:47:46;;;;;;;;;;;7.70;88.40;;;;;;5037203;28;20056;-81